Pagrindinis puslapis
METAR-TAF:

METAR-TAF

Oro uostai :

Heliport

Værøy, Norvegija

platuma: 67-39-16N, ilguma: 12-43-37E, Aukštis: 5 m

Dabartinis oras

Ataskaita buvo paskelbta 9 valandos ir 41 minutes, ne 06:50 UTC
Vėjas 7 kt iš Vakarų, svyruoja nuo Pietų/Pietvakarių ir Rytų/Šiaurės Rytų
Temperatūra 4°C
Drėgmė 87%
Slėgis 972 hPa
Matomumas 10 km arba daugiau
Mažai debesys ne aukštis 1400 ft
Išsisklaidę debesys ne aukštis 2600 ft
Su prošvaistėmis ne aukštis 3900 ft
lietus

METAR: ENVR 070650Z 28007KT 210V060 9999 -SHRA FEW014 SCT026 BKN039 04/02 Q0972

Laikas: 17:31 (16:31 UTC)


TAF: trūkstamas

Orai ataskaitas ir orų prognozės (METAR, TAF).

turimą stotys yra geltonos ir raudonos taškus žemėlapyje.

Perkelti pele per norėdami pamatyti stoties vardą.

Tada spustelėkite, norėdami matyti oro stebėjimo ir prognozės.

Norėdami pakeisti žemėlapį: spustelėkite ant žalios mygtukų su juodo kryžiaus žemyn,; žalią mygtuką su brūkšneliu, jei norite nutolinti; arba žalių rodyklių gretimoms žemėlapius.


METAR-TAF: